createdAt,value
2022-12-29T00:01:23.907Z,12.95
2022-12-29T00:03:52.853Z,12.95
2022-12-29T00:06:21.615Z,12.97
2022-12-29T00:08:52.237Z,12.93
2022-12-29T00:11:23.999Z,13.00
2022-12-29T00:14:06.694Z,13.05
2022-12-29T00:16:38.343Z,13.04
2022-12-29T00:19:27.500Z,13.12
2022-12-29T00:22:09.291Z,13.13
2022-12-29T00:24:53.044Z,13.10
2022-12-29T00:27:44.056Z,13.10
2022-12-29T00:30:27.953Z,13.12
2022-12-29T00:33:09.731Z,13.13
2022-12-29T00:35:44.902Z,13.15
2022-12-29T00:38:27.610Z,13.18
2022-12-29T00:41:11.416Z,13.16
2022-12-29T00:43:53.203Z,13.19
2022-12-29T00:46:21.990Z,13.22
2022-12-29T00:49:03.812Z,13.23
2022-12-29T00:51:32.482Z,13.15
2022-12-29T00:54:01.179Z,13.18
2022-12-29T00:56:31.783Z,13.21
2022-12-29T00:59:03.325Z,13.17
2022-12-29T01:01:32.735Z,13.13
2022-12-29T01:04:03.962Z,13.09
2022-12-29T01:06:33.911Z,13.12
2022-12-29T01:09:15.762Z,13.10
2022-12-29T01:11:47.083Z,13.04
2022-12-29T01:14:16.053Z,12.96
2022-12-29T01:16:46.859Z,12.86
2022-12-29T01:19:16.580Z,12.82
2022-12-29T01:21:47.000Z,12.80
2022-12-29T01:24:16.429Z,12.75
2022-12-29T01:26:48.840Z,12.74
2022-12-29T01:29:17.373Z,12.68
2022-12-29T01:31:46.913Z,12.66
2022-12-29T01:34:15.871Z,12.61
2022-12-29T01:36:44.865Z,12.68
2022-12-29T01:39:14.489Z,12.65
2022-12-29T01:41:43.672Z,12.75
2022-12-29T01:44:55.297Z,12.70
2022-12-29T01:47:37.376Z,12.73
2022-12-29T01:50:09.473Z,12.66
2022-12-29T01:52:43.375Z,12.68
2022-12-29T01:55:13.519Z,12.74
2022-12-29T01:57:48.375Z,12.78
2022-12-29T02:00:19.605Z,12.75
2022-12-29T02:02:53.215Z,12.81
2022-12-29T02:05:31.191Z,12.78
2022-12-29T02:08:00.119Z,12.79
2022-12-29T02:10:33.246Z,12.80
2022-12-29T02:13:02.528Z,12.79
2022-12-29T02:15:47.279Z,12.77
2022-12-29T02:18:30.237Z,12.81
2022-12-29T02:21:46.304Z,12.80
2022-12-29T02:24:56.808Z,12.76
2022-12-29T02:28:05.749Z,12.70
2022-12-29T02:30:48.024Z,12.73
2022-12-29T02:33:43.417Z,12.68
2022-12-29T02:36:27.292Z,12.68
2022-12-29T02:39:08.404Z,12.69
2022-12-29T02:41:48.518Z,12.65
2022-12-29T02:44:30.148Z,12.65
2022-12-29T02:47:07.740Z,12.64
2022-12-29T02:49:42.546Z,12.63
2022-12-29T02:52:19.044Z,12.60
2022-12-29T02:54:48.566Z,12.58
2022-12-29T02:57:33.509Z,12.58
2022-12-29T03:00:08.387Z,12.57
2022-12-29T03:03:14.717Z,12.49
2022-12-29T03:06:08.610Z,12.50
2022-12-29T03:08:48.115Z,12.51
2022-12-29T03:11:30.396Z,12.48
2022-12-29T03:14:20.858Z,12.40
2022-12-29T03:16:54.567Z,12.35
2022-12-29T03:19:30.909Z,12.29
2022-12-29T03:22:16.742Z,12.28
2022-12-29T03:24:50.948Z,12.20
2022-12-29T03:27:25.813Z,12.19
2022-12-29T03:29:59.775Z,12.14
2022-12-29T03:32:34.395Z,12.13
2022-12-29T03:35:07.064Z,12.14
2022-12-29T03:37:42.103Z,12.19
2022-12-29T03:40:12.070Z,12.25
2022-12-29T03:42:42.046Z,12.29
2022-12-29T03:45:13.205Z,12.25
2022-12-29T03:47:41.912Z,12.19
2022-12-29T03:50:15.273Z,12.16
2022-12-29T03:52:43.984Z,12.15
2022-12-29T03:55:13.027Z,12.14
2022-12-29T03:57:41.839Z,12.11
2022-12-29T04:00:13.031Z,12.04
2022-12-29T04:02:41.894Z,12.06
2022-12-29T04:05:12.759Z,12.08
2022-12-29T04:07:41.393Z,12.12
2022-12-29T04:10:11.193Z,12.09
2022-12-29T04:12:41.977Z,12.16
2022-12-29T04:15:12.297Z,12.17
2022-12-29T04:17:40.898Z,12.19
2022-12-29T04:20:26.003Z,12.24
2022-12-29T04:23:02.347Z,12.32
2022-12-29T04:25:31.145Z,12.37
2022-12-29T04:27:59.832Z,12.37
2022-12-29T04:30:28.634Z,12.39
2022-12-29T04:32:57.418Z,12.41
2022-12-29T04:35:27.962Z,12.42
2022-12-29T04:37:56.708Z,12.36
2022-12-29T04:40:25.699Z,12.38
2022-12-29T04:42:54.423Z,12.36
2022-12-29T04:45:23.110Z,12.30
2022-12-29T04:47:51.761Z,12.22
2022-12-29T04:50:20.691Z,12.22
2022-12-29T04:52:51.242Z,12.13
2022-12-29T04:55:20.250Z,12.09
2022-12-29T04:57:48.911Z,12.05
2022-12-29T05:00:17.979Z,12.00
2022-12-29T05:02:47.652Z,11.93
2022-12-29T05:05:16.589Z,11.93
2022-12-29T05:07:45.275Z,11.87
2022-12-29T05:10:16.025Z,11.85
2022-12-29T05:12:44.778Z,11.89
2022-12-29T05:15:14.297Z,11.92
2022-12-29T05:17:43.273Z,11.92
2022-12-29T05:20:12.885Z,11.95
2022-12-29T05:22:41.557Z,11.91
2022-12-29T05:25:11.633Z,11.88
2022-12-29T05:27:42.431Z,11.77
2022-12-29T05:30:13.303Z,11.68
2022-12-29T05:32:41.980Z,11.66
2022-12-29T05:35:11.388Z,11.63
2022-12-29T05:37:39.966Z,11.65
2022-12-29T05:40:10.786Z,11.63
2022-12-29T05:42:41.766Z,11.62
2022-12-29T05:45:11.953Z,11.60
2022-12-29T05:47:40.588Z,11.54
2022-12-29T05:50:10.411Z,11.53
2022-12-29T05:52:39.095Z,11.53
2022-12-29T05:55:09.738Z,11.53
2022-12-29T05:57:38.571Z,11.48
2022-12-29T06:00:12.613Z,11.51
2022-12-29T06:02:41.307Z,11.50
2022-12-29T06:05:11.350Z,11.50
2022-12-29T06:07:40.040Z,11.51
2022-12-29T06:10:10.133Z,11.49
2022-12-29T06:12:38.780Z,11.48
2022-12-29T06:15:10.937Z,11.50
2022-12-29T06:17:39.576Z,11.46
2022-12-29T06:20:10.616Z,11.45
2022-12-29T06:22:39.764Z,11.42
2022-12-29T06:25:09.197Z,11.38
2022-12-29T06:27:37.862Z,11.37
2022-12-29T06:30:10.383Z,11.32
2022-12-29T06:32:39.367Z,11.36
2022-12-29T06:35:09.154Z,11.30
2022-12-29T06:37:37.952Z,11.35
2022-12-29T06:40:08.420Z,11.36
2022-12-29T06:42:37.058Z,11.36
2022-12-29T06:45:07.740Z,11.37
2022-12-29T06:47:38.753Z,11.40
2022-12-29T06:50:08.851Z,11.41
2022-12-29T06:52:37.521Z,11.47
2022-12-29T06:55:07.391Z,11.49
2022-12-29T06:57:37.081Z,11.50
2022-12-29T07:00:07.095Z,11.48
2022-12-29T07:02:37.719Z,11.40
2022-12-29T07:05:08.028Z,11.38
2022-12-29T07:07:36.699Z,11.35
2022-12-29T07:10:06.261Z,11.22
2022-12-29T07:12:34.981Z,11.19
2022-12-29T07:15:03.664Z,11.07
2022-12-29T07:17:32.324Z,11.01
2022-12-29T07:20:02.856Z,10.91
2022-12-29T07:22:31.638Z,10.79
2022-12-29T07:25:00.249Z,10.83
2022-12-29T07:27:29.028Z,10.89
2022-12-29T07:29:57.806Z,10.88
2022-12-29T07:32:26.672Z,10.96
2022-12-29T07:34:55.445Z,10.94
2022-12-29T07:37:26.099Z,10.98
2022-12-29T07:39:54.804Z,11.04
2022-12-29T07:42:23.579Z,11.05
2022-12-29T07:44:52.247Z,11.10
2022-12-29T07:47:21.146Z,11.16
2022-12-29T07:49:49.840Z,11.18
2022-12-29T07:52:18.511Z,11.23
2022-12-29T07:54:49.082Z,11.29
2022-12-29T07:57:17.841Z,11.30
2022-12-29T07:59:46.592Z,11.37
2022-12-29T08:02:15.316Z,11.40
2022-12-29T08:04:44.062Z,11.51
2022-12-29T08:07:12.720Z,11.57
2022-12-29T08:09:41.437Z,11.58
2022-12-29T08:12:13.135Z,11.60
2022-12-29T08:14:41.823Z,11.69
2022-12-29T08:17:10.518Z,11.68
2022-12-29T08:19:39.653Z,11.67
2022-12-29T08:22:08.375Z,11.72
2022-12-29T08:24:37.071Z,11.76
2022-12-29T08:27:15.875Z,11.73
2022-12-29T08:29:50.772Z,11.73
2022-12-29T08:32:19.654Z,11.73
2022-12-29T08:34:48.453Z,11.69
2022-12-29T08:37:17.116Z,11.68
2022-12-29T08:39:45.882Z,11.60
2022-12-29T08:42:14.570Z,11.57
2022-12-29T08:44:43.226Z,11.59
2022-12-29T08:47:14.673Z,11.61
2022-12-29T08:49:43.371Z,11.58
2022-12-29T08:52:12.065Z,11.56
2022-12-29T08:54:41.398Z,11.63
2022-12-29T08:57:10.188Z,11.66
2022-12-29T08:59:38.831Z,11.71
2022-12-29T09:02:07.993Z,11.77
2022-12-29T09:04:38.834Z,11.72
2022-12-29T09:07:08.014Z,11.69
2022-12-29T09:09:36.824Z,11.65
2022-12-29T09:12:05.851Z,11.58
2022-12-29T09:14:34.585Z,11.52
2022-12-29T09:17:16.349Z,11.46
2022-12-29T09:19:46.921Z,11.43
2022-12-29T09:22:15.572Z,11.34
2022-12-29T09:24:44.195Z,11.32
2022-12-29T09:27:12.959Z,11.32
2022-12-29T09:29:41.611Z,11.26
2022-12-29T09:32:13.874Z,11.23
2022-12-29T09:34:47.796Z,11.20
2022-12-29T09:37:16.656Z,11.17
2022-12-29T09:39:49.172Z,11.16
2022-12-29T09:42:29.916Z,11.11
2022-12-29T09:45:14.649Z,11.09
2022-12-29T09:47:45.176Z,11.13
2022-12-29T09:50:27.489Z,11.09
2022-12-29T09:53:03.954Z,11.17
2022-12-29T09:55:39.362Z,11.14
2022-12-29T09:58:16.388Z,11.12
2022-12-29T10:00:55.687Z,11.17
2022-12-29T10:03:29.630Z,11.18
2022-12-29T10:06:14.192Z,11.21
2022-12-29T10:08:52.209Z,11.24
2022-12-29T10:11:35.864Z,11.26
2022-12-29T10:14:20.217Z,11.35
2022-12-29T10:17:01.012Z,11.38
2022-12-29T10:19:51.633Z,11.41
2022-12-29T10:22:41.121Z,11.46
2022-12-29T10:25:18.940Z,11.55
2022-12-29T10:27:51.308Z,11.50
2022-12-29T10:30:20.629Z,11.59
2022-12-29T10:32:55.510Z,11.68
2022-12-29T10:35:26.387Z,11.76
2022-12-29T10:38:04.718Z,11.71
2022-12-29T10:40:42.296Z,11.77
2022-12-29T10:43:26.867Z,11.75
2022-12-29T10:45:59.064Z,11.79
2022-12-29T10:48:32.365Z,11.83
2022-12-29T10:51:03.757Z,11.80
2022-12-29T10:53:42.905Z,11.79
2022-12-29T10:56:24.014Z,11.83
2022-12-29T10:58:53.795Z,11.87
2022-12-29T11:01:22.828Z,11.90
2022-12-29T11:04:05.289Z,12.01
2022-12-29T11:06:34.351Z,12.64
2022-12-29T11:09:16.143Z,13.20
2022-12-29T11:11:45.503Z,13.74
2022-12-29T11:14:20.127Z,14.12
2022-12-29T11:17:00.280Z,14.26
2022-12-29T11:19:33.001Z,14.43
2022-12-29T11:22:23.062Z,14.67
2022-12-29T11:24:55.573Z,14.78
2022-12-29T11:27:27.237Z,14.62
2022-12-29T11:29:57.094Z,14.42
2022-12-29T11:32:30.365Z,14.47
2022-12-29T11:35:01.329Z,14.55
2022-12-29T11:37:35.579Z,14.54
2022-12-29T11:40:18.545Z,14.61
2022-12-29T11:42:53.958Z,14.96
2022-12-29T11:45:26.387Z,14.79
2022-12-29T11:47:58.576Z,14.45
2022-12-29T11:50:30.068Z,14.07
2022-12-29T11:53:03.868Z,13.84
2022-12-29T11:55:35.109Z,13.67
2022-12-29T11:58:06.524Z,13.53
2022-12-29T12:00:41.381Z,13.40
2022-12-29T12:03:19.056Z,13.31
2022-12-29T12:05:53.778Z,13.14
2022-12-29T12:08:36.323Z,13.11
2022-12-29T12:11:14.755Z,12.92
2022-12-29T12:13:55.159Z,12.83
2022-12-29T12:16:29.851Z,12.76
2022-12-29T12:19:04.379Z,12.75
2022-12-29T12:21:45.425Z,12.67
2022-12-29T12:24:41.563Z,12.64
2022-12-29T12:27:21.712Z,12.65
2022-12-29T12:30:00.549Z,12.68
2022-12-29T12:32:43.284Z,12.65
2022-12-29T12:35:21.332Z,12.68
2022-12-29T12:38:09.464Z,12.73
2022-12-29T12:41:02.414Z,12.81
2022-12-29T12:43:45.247Z,12.85
2022-12-29T12:46:40.039Z,12.96
2022-12-29T12:49:32.970Z,13.00
2022-12-29T12:52:13.967Z,12.97
2022-12-29T12:55:09.529Z,13.05
2022-12-29T12:57:54.066Z,12.95
2022-12-29T13:00:25.491Z,13.01
2022-12-29T13:03:10.714Z,12.95
2022-12-29T13:06:03.895Z,12.88
2022-12-29T13:09:10.979Z,12.90
2022-12-29T13:11:58.422Z,12.87
2022-12-29T13:14:45.015Z,12.86
2022-12-29T13:17:27.748Z,12.87
2022-12-29T13:20:10.454Z,12.83
2022-12-29T13:22:48.949Z,12.84
2022-12-29T13:25:36.807Z,12.85
2022-12-29T13:28:14.641Z,12.83
